East Greenwich, New York
Current Conditions -  °F | °C
As of 8:53 AM on Thursday 30 Oct 2014 (Local Time) from KGFL Reporting Station
Broken Clouds Broken Clouds  
Wind Chill: 47°   Ceiling: 6500
Heat Index: 47°   Visibility: 10mi
Dew Point: 38°   Wind: 3mph
Humidity: 71%   Direction: 260°W
Pressure: 29.96"   Gusts: NA
Location:  43.2004°N, 73.3317°W
Report Text: KGFL 301253Z AUTO 26003KT 10SM BKN065 08/03 A2996 RMK AO2 SLP148 T00830033
Loading
Personal Weather Stations






























Interactive Weather Map
Tropical Storm Tracking
New forecast layout! Learn more

10-Day Weather Forecast

Advertisements
Track Severe Weather on mobile